Preview of NWS' New Version of Forecast
This preview is not operational and should not be used for support decisions.

Terminal Aerodrome Forecast (TAF)

Issued by National Weather Service (NWS)

                            
446 
FTUS42 KKEY 240523
TAFMTH
TAF
KMTH 240523Z 2406/2506 09009G18KT P6SM VCSH SCT025 SCT080
     FM241500 12010G18KT P6SM FEW025 SCT080=